sensor_id;sensor_type;location;lat;lon;timestamp;P1;durP1;ratioP1;P2;durP2;ratioP2
68765;SDS011;55756;45.582;11.484;2022-09-09T00:10:19;10.90;;;5.32;;
68765;SDS011;55756;45.582;11.484;2022-09-09T00:12:43;12.05;;;4.88;;
68765;SDS011;55756;45.582;11.484;2022-09-09T00:28:28;14.15;;;5.25;;
68765;SDS011;55756;45.582;11.484;2022-09-09T00:33:40;10.23;;;5.20;;
68765;SDS011;55756;45.582;11.484;2022-09-09T00:36:15;11.60;;;5.10;;
68765;SDS011;55756;45.582;11.484;2022-09-09T00:38:52;11.20;;;5.03;;
68765;SDS011;55756;45.582;11.484;2022-09-09T00:44:06;12.50;;;5.68;;
68765;SDS011;55756;45.582;11.484;2022-09-09T00:49:26;17.67;;;7.70;;
68765;SDS011;55756;45.582;11.484;2022-09-09T00:55:05;14.85;;;7.53;;
68765;SDS011;55756;45.582;11.484;2022-09-09T00:57:35;13.38;;;7.55;;
68765;SDS011;55756;45.582;11.484;2022-09-09T01:00:23;14.13;;;7.30;;
68765;SDS011;55756;45.582;11.484;2022-09-09T01:05:36;13.00;;;6.70;;
68765;SDS011;55756;45.582;11.484;2022-09-09T01:10:59;10.88;;;5.72;;
68765;SDS011;55756;45.582;11.484;2022-09-09T01:13:29;15.27;;;5.80;;
68765;SDS011;55756;45.582;11.484;2022-09-09T01:16:04;10.77;;;5.30;;
68765;SDS011;55756;45.582;11.484;2022-09-09T01:18:54;11.43;;;5.30;;
68765;SDS011;55756;45.582;11.484;2022-09-09T01:27:02;13.48;;;6.50;;
68765;SDS011;55756;45.582;11.484;2022-09-09T01:29:30;14.27;;;6.90;;
68765;SDS011;55756;45.582;11.484;2022-09-09T01:31:58;10.70;;;6.43;;
68765;SDS011;55756;45.582;11.484;2022-09-09T01:34:26;11.98;;;7.10;;
68765;SDS011;55756;45.582;11.484;2022-09-09T01:39:25;12.00;;;6.97;;
68765;SDS011;55756;45.582;11.484;2022-09-09T01:41:59;13.27;;;7.00;;
68765;SDS011;55756;45.582;11.484;2022-09-09T01:44:26;15.90;;;7.82;;
68765;SDS011;55756;45.582;11.484;2022-09-09T01:46:55;18.13;;;8.35;;
68765;SDS011;55756;45.582;11.484;2022-09-09T01:49:21;17.48;;;8.48;;
68765;SDS011;55756;45.582;11.484;2022-09-09T01:51:49;19.30;;;10.52;;
68765;SDS011;55756;45.582;11.484;2022-09-09T01:54:21;23.02;;;11.18;;
68765;SDS011;55756;45.582;11.484;2022-09-09T02:02:23;19.10;;;10.95;;
68765;SDS011;55756;45.582;11.484;2022-09-09T02:08:17;17.80;;;10.57;;
68765;SDS011;55756;45.582;11.484;2022-09-09T02:11:02;13.43;;;9.00;;
68765;SDS011;55756;45.582;11.484;2022-09-09T02:13:47;13.60;;;7.28;;
68765;SDS011;55756;45.582;11.484;2022-09-09T02:18:55;12.32;;;6.10;;
68765;SDS011;55756;45.582;11.484;2022-09-09T02:21:31;12.75;;;5.47;;
68765;SDS011;55756;45.582;11.484;2022-09-09T02:24:00;12.77;;;4.93;;
68765;SDS011;55756;45.582;11.484;2022-09-09T02:26:32;12.27;;;5.40;;
68765;SDS011;55756;45.582;11.484;2022-09-09T02:29:05;9.82;;;4.30;;
68765;SDS011;55756;45.582;11.484;2022-09-09T02:31:41;13.50;;;4.72;;
68765;SDS011;55756;45.582;11.484;2022-09-09T02:34:14;10.25;;;4.55;;
68765;SDS011;55756;45.582;11.484;2022-09-09T02:36:44;9.57;;;4.40;;
68765;SDS011;55756;45.582;11.484;2022-09-09T02:39:12;8.77;;;3.83;;
68765;SDS011;55756;45.582;11.484;2022-09-09T02:41:39;10.30;;;3.50;;
68765;SDS011;55756;45.582;11.484;2022-09-09T02:44:14;8.80;;;3.25;;
68765;SDS011;55756;45.582;11.484;2022-09-09T02:50:11;8.98;;;3.33;;
68765;SDS011;55756;45.582;11.484;2022-09-09T02:53:26;10.65;;;3.20;;
68765;SDS011;55756;45.582;11.484;2022-09-09T02:55:38;12.68;;;3.20;;
68765;SDS011;55756;45.582;11.484;2022-09-09T02:58:11;9.90;;;3.13;;
68765;SDS011;55756;45.582;11.484;2022-09-09T03:00:49;11.95;;;3.10;;
68765;SDS011;55756;45.582;11.484;2022-09-09T03:03:18;9.50;;;3.55;;
68765;SDS011;55756;45.582;11.484;2022-09-09T03:05:48;10.82;;;3.70;;
68765;SDS011;55756;45.582;11.484;2022-09-09T03:08:14;10.70;;;3.47;;
68765;SDS011;55756;45.582;11.484;2022-09-09T03:10:42;10.40;;;3.53;;
68765;SDS011;55756;45.582;11.484;2022-09-09T03:13:09;11.40;;;3.60;;
68765;SDS011;55756;45.582;11.484;2022-09-09T03:15:38;9.43;;;3.20;;
68765;SDS011;55756;45.582;11.484;2022-09-09T03:18:08;10.80;;;3.90;;
68765;SDS011;55756;45.582;11.484;2022-09-09T03:20:35;8.85;;;3.75;;
68765;SDS011;55756;45.582;11.484;2022-09-09T03:23:00;8.60;;;3.60;;
68765;SDS011;55756;45.582;11.484;2022-09-09T03:25:27;10.20;;;4.03;;
68765;SDS011;55756;45.582;11.484;2022-09-09T03:27:54;14.00;;;4.57;;
68765;SDS011;55756;45.582;11.484;2022-09-09T03:30:23;8.00;;;4.03;;
68765;SDS011;55756;45.582;11.484;2022-09-09T03:32:50;13.23;;;4.57;;
68765;SDS011;55756;45.582;11.484;2022-09-09T03:35:17;15.88;;;4.75;;
68765;SDS011;55756;45.582;11.484;2022-09-09T03:37:44;13.75;;;4.72;;
68765;SDS011;55756;45.582;11.484;2022-09-09T03:40:12;11.90;;;4.90;;
68765;SDS011;55756;45.582;11.484;2022-09-09T03:42:38;10.63;;;4.50;;
68765;SDS011;55756;45.582;11.484;2022-09-09T03:45:05;10.52;;;4.75;;
68765;SDS011;55756;45.582;11.484;2022-09-09T03:47:35;12.32;;;4.47;;
68765;SDS011;55756;45.582;11.484;2022-09-09T03:52:37;14.90;;;5.50;;
68765;SDS011;55756;45.582;11.484;2022-09-09T03:55:07;14.77;;;5.45;;
68765;SDS011;55756;45.582;11.484;2022-09-09T03:57:33;12.20;;;4.93;;
68765;SDS011;55756;45.582;11.484;2022-09-09T04:00:05;12.57;;;5.53;;
68765;SDS011;55756;45.582;11.484;2022-09-09T04:02:41;17.58;;;5.60;;
68765;SDS011;55756;45.582;11.484;2022-09-09T04:07:38;12.25;;;5.07;;
68765;SDS011;55756;45.582;11.484;2022-09-09T04:10:04;12.80;;;5.30;;
68765;SDS011;55756;45.582;11.484;2022-09-09T04:12:30;14.95;;;4.80;;
68765;SDS011;55756;45.582;11.484;2022-09-09T04:14:57;15.93;;;5.03;;
68765;SDS011;55756;45.582;11.484;2022-09-09T04:17:23;13.75;;;4.95;;
68765;SDS011;55756;45.582;11.484;2022-09-09T04:19:49;10.75;;;4.50;;
68765;SDS011;55756;45.582;11.484;2022-09-09T04:22:15;11.68;;;4.47;;
68765;SDS011;55756;45.582;11.484;2022-09-09T04:24:41;10.82;;;4.60;;
68765;SDS011;55756;45.582;11.484;2022-09-09T04:27:07;10.38;;;4.80;;
68765;SDS011;55756;45.582;11.484;2022-09-09T04:29:34;12.82;;;4.63;;
68765;SDS011;55756;45.582;11.484;2022-09-09T04:32:00;12.45;;;4.55;;
68765;SDS011;55756;45.582;11.484;2022-09-09T04:34:26;14.55;;;5.40;;
68765;SDS011;55756;45.582;11.484;2022-09-09T04:36:53;13.52;;;5.28;;
68765;SDS011;55756;45.582;11.484;2022-09-09T04:39:20;13.90;;;4.85;;
68765;SDS011;55756;45.582;11.484;2022-09-09T04:41:45;10.90;;;5.10;;
68765;SDS011;55756;45.582;11.484;2022-09-09T04:44:12;11.75;;;5.05;;
68765;SDS011;55756;45.582;11.484;2022-09-09T04:46:38;14.52;;;5.20;;
68765;SDS011;55756;45.582;11.484;2022-09-09T04:49:04;15.40;;;5.30;;
68765;SDS011;55756;45.582;11.484;2022-09-09T04:51:31;12.90;;;4.95;;
68765;SDS011;55756;45.582;11.484;2022-09-09T04:53:58;11.25;;;4.78;;
68765;SDS011;55756;45.582;11.484;2022-09-09T04:56:24;13.73;;;4.85;;
68765;SDS011;55756;45.582;11.484;2022-09-09T04:58:56;11.00;;;4.53;;
68765;SDS011;55756;45.582;11.484;2022-09-09T05:01:29;13.90;;;4.38;;
68765;SDS011;55756;45.582;11.484;2022-09-09T05:04:00;10.40;;;3.92;;
68765;SDS011;55756;45.582;11.484;2022-09-09T05:06:27;15.05;;;4.38;;
68765;SDS011;55756;45.582;11.484;2022-09-09T05:08:58;11.95;;;4.57;;
68765;SDS011;55756;45.582;11.484;2022-09-09T05:11:28;12.25;;;4.38;;
68765;SDS011;55756;45.582;11.484;2022-09-09T05:14:21;12.20;;;4.22;;
68765;SDS011;55756;45.582;11.484;2022-09-09T05:16:47;12.00;;;4.30;;
68765;SDS011;55756;45.582;11.484;2022-09-09T05:19:15;12.05;;;4.32;;
68765;SDS011;55756;45.582;11.484;2022-09-09T05:21:46;11.55;;;3.90;;
68765;SDS011;55756;45.582;11.484;2022-09-09T05:24:15;8.10;;;4.05;;
68765;SDS011;55756;45.582;11.484;2022-09-09T05:26:42;10.82;;;3.90;;
68765;SDS011;55756;45.582;11.484;2022-09-09T05:29:09;11.32;;;4.20;;
68765;SDS011;55756;45.582;11.484;2022-09-09T05:31:35;14.10;;;4.50;;
68765;SDS011;55756;45.582;11.484;2022-09-09T05:34:07;10.55;;;4.40;;
68765;SDS011;55756;45.582;11.484;2022-09-09T05:36:33;14.35;;;4.30;;
68765;SDS011;55756;45.582;11.484;2022-09-09T05:38:59;10.23;;;4.20;;
68765;SDS011;55756;45.582;11.484;2022-09-09T05:41:27;12.68;;;4.55;;
68765;SDS011;55756;45.582;11.484;2022-09-09T05:46:23;10.20;;;4.05;;
68765;SDS011;55756;45.582;11.484;2022-09-09T05:48:52;16.67;;;4.28;;
68765;SDS011;55756;45.582;11.484;2022-09-09T05:51:22;11.13;;;4.20;;
68765;SDS011;55756;45.582;11.484;2022-09-09T05:53:52;11.95;;;4.00;;
68765;SDS011;55756;45.582;11.484;2022-09-09T05:56:22;10.45;;;4.20;;
68765;SDS011;55756;45.582;11.484;2022-09-09T05:58:51;12.43;;;4.10;;
68765;SDS011;55756;45.582;11.484;2022-09-09T06:03:50;14.20;;;4.43;;
68765;SDS011;55756;45.582;11.484;2022-09-09T06:06:18;12.10;;;4.45;;
68765;SDS011;55756;45.582;11.484;2022-09-09T06:08:53;12.85;;;4.80;;
68765;SDS011;55756;45.582;11.484;2022-09-09T06:11:24;13.35;;;4.47;;
68765;SDS011;55756;45.582;11.484;2022-09-09T06:13:52;11.40;;;4.53;;
68765;SDS011;55756;45.582;11.484;2022-09-09T06:16:20;15.88;;;4.20;;
68765;SDS011;55756;45.582;11.484;2022-09-09T06:18:52;11.20;;;4.40;;
68765;SDS011;55756;45.582;11.484;2022-09-09T06:21:30;12.80;;;4.30;;
68765;SDS011;55756;45.582;11.484;2022-09-09T06:24:03;9.68;;;4.22;;
68765;SDS011;55756;45.582;11.484;2022-09-09T06:26:31;11.55;;;3.90;;
68765;SDS011;55756;45.582;11.484;2022-09-09T06:29:00;12.27;;;3.90;;
68765;SDS011;55756;45.582;11.484;2022-09-09T06:31:29;8.88;;;3.70;;
68765;SDS011;55756;45.582;11.484;2022-09-09T06:33:59;10.80;;;3.67;;
68765;SDS011;55756;45.582;11.484;2022-09-09T06:36:28;10.90;;;3.60;;
68765;SDS011;55756;45.582;11.484;2022-09-09T06:38:56;13.57;;;4.00;;
68765;SDS011;55756;45.582;11.484;2022-09-09T06:41:23;9.77;;;3.63;;
68765;SDS011;55756;45.582;11.484;2022-09-09T06:43:52;11.60;;;4.15;;
68765;SDS011;55756;45.582;11.484;2022-09-09T06:46:27;11.73;;;4.15;;
68765;SDS011;55756;45.582;11.484;2022-09-09T06:48:56;14.25;;;4.68;;
68765;SDS011;55756;45.582;11.484;2022-09-09T06:53:56;18.05;;;5.47;;
68765;SDS011;55756;45.582;11.484;2022-09-09T06:56:34;13.90;;;5.40;;
68765;SDS011;55756;45.582;11.484;2022-09-09T06:59:06;18.08;;;5.07;;
68765;SDS011;55756;45.582;11.484;2022-09-09T07:01:36;13.93;;;4.18;;
68765;SDS011;55756;45.582;11.484;2022-09-09T07:04:07;10.55;;;3.80;;
68765;SDS011;55756;45.582;11.484;2022-09-09T07:06:36;9.50;;;3.40;;
68765;SDS011;55756;45.582;11.484;2022-09-09T07:09:06;9.70;;;3.38;;
68765;SDS011;55756;45.582;11.484;2022-09-09T07:11:36;13.52;;;3.15;;
68765;SDS011;55756;45.582;11.484;2022-09-09T07:14:04;11.77;;;3.30;;
68765;SDS011;55756;45.582;11.484;2022-09-09T07:16:30;11.32;;;2.90;;
68765;SDS011;55756;45.582;11.484;2022-09-09T07:18:59;12.77;;;3.13;;
68765;SDS011;55756;45.582;11.484;2022-09-09T07:21:27;9.65;;;3.10;;
68765;SDS011;55756;45.582;11.484;2022-09-09T07:23:54;13.80;;;3.30;;
68765;SDS011;55756;45.582;11.484;2022-09-09T07:26:22;11.73;;;2.90;;
68765;SDS011;55756;45.582;11.484;2022-09-09T07:28:51;9.32;;;3.20;;
68765;SDS011;55756;45.582;11.484;2022-09-09T07:31:24;9.73;;;3.20;;
68765;SDS011;55756;45.582;11.484;2022-09-09T07:33:52;9.48;;;3.00;;
68765;SDS011;55756;45.582;11.484;2022-09-09T07:38:49;10.43;;;3.15;;
68765;SDS011;55756;45.582;11.484;2022-09-09T07:46:13;9.60;;;3.15;;
68765;SDS011;55756;45.582;11.484;2022-09-09T07:48:44;11.52;;;3.92;;
68765;SDS011;55756;45.582;11.484;2022-09-09T07:51:12;8.65;;;3.00;;
68765;SDS011;55756;45.582;11.484;2022-09-09T07:53:43;9.13;;;2.80;;
68765;SDS011;55756;45.582;11.484;2022-09-09T07:56:11;9.80;;;3.15;;
68765;SDS011;55756;45.582;11.484;2022-09-09T07:58:40;11.05;;;3.33;;
68765;SDS011;55756;45.582;11.484;2022-09-09T08:01:13;10.73;;;2.97;;
68765;SDS011;55756;45.582;11.484;2022-09-09T08:03:47;9.85;;;3.70;;
68765;SDS011;55756;45.582;11.484;2022-09-09T08:06:27;14.05;;;4.82;;
68765;SDS011;55756;45.582;11.484;2022-09-09T08:09:01;13.52;;;3.40;;
68765;SDS011;55756;45.582;11.484;2022-09-09T08:11:28;8.82;;;2.70;;
68765;SDS011;55756;45.582;11.484;2022-09-09T08:13:55;10.23;;;2.80;;
68765;SDS011;55756;45.582;11.484;2022-09-09T08:16:23;11.02;;;2.97;;
68765;SDS011;55756;45.582;11.484;2022-09-09T08:18:50;9.38;;;3.08;;
68765;SDS011;55756;45.582;11.484;2022-09-09T08:21:19;8.65;;;2.70;;
68765;SDS011;55756;45.582;11.484;2022-09-09T08:23:47;9.98;;;3.00;;
68765;SDS011;55756;45.582;11.484;2022-09-09T08:26:24;8.60;;;2.70;;
68765;SDS011;55756;45.582;11.484;2022-09-09T08:28:54;12.00;;;3.00;;
68765;SDS011;55756;45.582;11.484;2022-09-09T08:31:23;9.75;;;2.90;;
68765;SDS011;55756;45.582;11.484;2022-09-09T08:33:54;11.77;;;2.97;;
68765;SDS011;55756;45.582;11.484;2022-09-09T08:36:22;7.82;;;2.83;;
68765;SDS011;55756;45.582;11.484;2022-09-09T08:38:51;9.43;;;2.78;;
68765;SDS011;55756;45.582;11.484;2022-09-09T08:55:53;8.52;;;2.70;;
68765;SDS011;55756;45.582;11.484;2022-09-09T08:58:34;9.13;;;2.50;;
68765;SDS011;55756;45.582;11.484;2022-09-09T09:09:04;11.98;;;2.90;;
68765;SDS011;55756;45.582;11.484;2022-09-09T09:11:39;11.52;;;4.88;;
68765;SDS011;55756;45.582;11.484;2022-09-09T09:19:16;7.65;;;2.28;;
68765;SDS011;55756;45.582;11.484;2022-09-09T09:21:48;8.32;;;2.40;;
68765;SDS011;55756;45.582;11.484;2022-09-09T09:24:24;8.93;;;2.47;;
68765;SDS011;55756;45.582;11.484;2022-09-09T09:27:07;9.60;;;2.50;;
68765;SDS011;55756;45.582;11.484;2022-09-09T09:29:47;10.32;;;2.70;;
68765;SDS011;55756;45.582;11.484;2022-09-09T09:32:17;8.77;;;2.60;;
68765;SDS011;55756;45.582;11.484;2022-09-09T09:34:56;11.40;;;2.70;;
68765;SDS011;55756;45.582;11.484;2022-09-09T09:37:26;11.73;;;2.60;;
68765;SDS011;55756;45.582;11.484;2022-09-09T09:40:08;11.13;;;2.78;;
68765;SDS011;55756;45.582;11.484;2022-09-09T09:42:51;8.80;;;3.10;;
68765;SDS011;55756;45.582;11.484;2022-09-09T09:45:27;9.75;;;2.75;;
68765;SDS011;55756;45.582;11.484;2022-09-09T09:48:11;11.80;;;2.83;;
68765;SDS011;55756;45.582;11.484;2022-09-09T09:53:24;9.98;;;2.95;;
68765;SDS011;55756;45.582;11.484;2022-09-09T09:55:58;10.60;;;3.10;;
68765;SDS011;55756;45.582;11.484;2022-09-09T09:58:30;11.23;;;3.05;;
68765;SDS011;55756;45.582;11.484;2022-09-09T10:01:00;8.70;;;2.70;;
68765;SDS011;55756;45.582;11.484;2022-09-09T10:05:57;11.02;;;2.75;;
68765;SDS011;55756;45.582;11.484;2022-09-09T10:08:24;15.18;;;3.10;;
68765;SDS011;55756;45.582;11.484;2022-09-09T10:11:02;12.38;;;2.90;;
68765;SDS011;55756;45.582;11.484;2022-09-09T10:19:29;8.48;;;2.83;;
68765;SDS011;55756;45.582;11.484;2022-09-09T10:25:02;9.85;;;2.80;;
68765;SDS011;55756;45.582;11.484;2022-09-09T10:33:33;11.88;;;3.20;;
68765;SDS011;55756;45.582;11.484;2022-09-09T10:38:52;10.75;;;3.15;;
68765;SDS011;55756;45.582;11.484;2022-09-09T10:55:29;10.13;;;2.90;;
68765;SDS011;55756;45.582;11.484;2022-09-09T10:58:02;10.75;;;2.75;;
68765;SDS011;55756;45.582;11.484;2022-09-09T11:00:38;13.02;;;2.88;;
68765;SDS011;55756;45.582;11.484;2022-09-09T11:03:09;10.80;;;2.72;;
68765;SDS011;55756;45.582;11.484;2022-09-09T11:06:04;9.40;;;3.00;;
68765;SDS011;55756;45.582;11.484;2022-09-09T11:08:32;10.95;;;3.05;;
68765;SDS011;55756;45.582;11.484;2022-09-09T11:11:04;9.23;;;2.72;;
68765;SDS011;55756;45.582;11.484;2022-09-09T11:16:30;9.90;;;2.70;;
68765;SDS011;55756;45.582;11.484;2022-09-09T11:22:04;9.77;;;2.42;;
68765;SDS011;55756;45.582;11.484;2022-09-09T11:24:52;9.68;;;2.50;;
68765;SDS011;55756;45.582;11.484;2022-09-09T11:27:27;12.50;;;3.17;;
68765;SDS011;55756;45.582;11.484;2022-09-09T11:40:59;8.45;;;2.60;;
68765;SDS011;55756;45.582;11.484;2022-09-09T11:43:46;8.38;;;2.10;;
68765;SDS011;55756;45.582;11.484;2022-09-09T11:46:13;15.82;;;1.70;;
68765;SDS011;55756;45.582;11.484;2022-09-09T11:48:43;7.97;;;1.70;;
68765;SDS011;55756;45.582;11.484;2022-09-09T11:51:25;14.82;;;3.55;;
68765;SDS011;55756;45.582;11.484;2022-09-09T11:54:00;13.90;;;3.13;;
68765;SDS011;55756;45.582;11.484;2022-09-09T11:56:29;15.10;;;2.80;;
68765;SDS011;55756;45.582;11.484;2022-09-09T12:01:42;8.07;;;2.38;;
68765;SDS011;55756;45.582;11.484;2022-09-09T12:17:42;12.38;;;1.92;;
68765;SDS011;55756;45.582;11.484;2022-09-09T12:26:23;8.15;;;2.47;;
68765;SDS011;55756;45.582;11.484;2022-09-09T12:34:08;6.65;;;1.60;;
68765;SDS011;55756;45.582;11.484;2022-09-09T12:36:53;5.35;;;1.60;;
68765;SDS011;55756;45.582;11.484;2022-09-09T12:42:20;6.75;;;1.80;;
68765;SDS011;55756;45.582;11.484;2022-09-09T12:44:51;4.05;;;1.50;;
68765;SDS011;55756;45.582;11.484;2022-09-09T12:53:39;2.83;;;1.20;;
68765;SDS011;55756;45.582;11.484;2022-09-09T12:56:05;3.58;;;1.30;;
68765;SDS011;55756;45.582;11.484;2022-09-09T12:58:34;4.15;;;1.20;;
68765;SDS011;55756;45.582;11.484;2022-09-09T13:01:03;4.38;;;1.40;;
68765;SDS011;55756;45.582;11.484;2022-09-09T13:05:58;4.30;;;1.27;;
68765;SDS011;55756;45.582;11.484;2022-09-09T13:08:36;5.22;;;1.40;;
68765;SDS011;55756;45.582;11.484;2022-09-09T13:11:03;4.25;;;1.50;;
68765;SDS011;55756;45.582;11.484;2022-09-09T13:13:36;5.50;;;1.58;;
68765;SDS011;55756;45.582;11.484;2022-09-09T13:16:15;3.55;;;1.20;;
68765;SDS011;55756;45.582;11.484;2022-09-09T13:18:51;3.47;;;1.00;;
68765;SDS011;55756;45.582;11.484;2022-09-09T13:21:18;1.83;;;1.00;;
68765;SDS011;55756;45.582;11.484;2022-09-09T13:23:48;4.57;;;1.10;;
68765;SDS011;55756;45.582;11.484;2022-09-09T13:26:22;4.10;;;1.30;;
68765;SDS011;55756;45.582;11.484;2022-09-09T13:28:51;2.95;;;1.20;;
68765;SDS011;55756;45.582;11.484;2022-09-09T13:31:28;4.07;;;1.20;;
68765;SDS011;55756;45.582;11.484;2022-09-09T13:33:55;4.32;;;1.70;;
68765;SDS011;55756;45.582;11.484;2022-09-09T13:36:28;2.78;;;1.20;;
68765;SDS011;55756;45.582;11.484;2022-09-09T13:38:56;4.10;;;1.20;;
68765;SDS011;55756;45.582;11.484;2022-09-09T13:41:43;3.13;;;1.10;;
68765;SDS011;55756;45.582;11.484;2022-09-09T13:44:28;4.50;;;1.00;;
68765;SDS011;55756;45.582;11.484;2022-09-09T13:47:04;3.97;;;1.20;;
68765;SDS011;55756;45.582;11.484;2022-09-09T13:49:44;3.47;;;1.20;;
68765;SDS011;55756;45.582;11.484;2022-09-09T13:52:17;4.07;;;1.10;;
68765;SDS011;55756;45.582;11.484;2022-09-09T13:54:50;4.57;;;1.35;;
68765;SDS011;55756;45.582;11.484;2022-09-09T13:57:21;2.08;;;1.10;;
68765;SDS011;55756;45.582;11.484;2022-09-09T13:59:48;4.07;;;1.20;;
68765;SDS011;55756;45.582;11.484;2022-09-09T14:02:17;4.45;;;1.52;;
68765;SDS011;55756;45.582;11.484;2022-09-09T14:04:44;5.20;;;1.40;;
68765;SDS011;55756;45.582;11.484;2022-09-09T14:07:17;4.78;;;1.30;;
68765;SDS011;55756;45.582;11.484;2022-09-09T14:09:43;5.90;;;1.50;;
68765;SDS011;55756;45.582;11.484;2022-09-09T14:12:10;4.75;;;1.50;;
68765;SDS011;55756;45.582;11.484;2022-09-09T14:14:37;5.78;;;1.42;;
68765;SDS011;55756;45.582;11.484;2022-09-09T14:17:03;5.13;;;1.40;;
68765;SDS011;55756;45.582;11.484;2022-09-09T14:19:29;4.10;;;1.40;;
68765;SDS011;55756;45.582;11.484;2022-09-09T14:21:56;5.30;;;1.60;;
68765;SDS011;55756;45.582;11.484;2022-09-09T14:24:22;5.45;;;1.42;;
68765;SDS011;55756;45.582;11.484;2022-09-09T14:26:48;4.00;;;1.40;;
68765;SDS011;55756;45.582;11.484;2022-09-09T14:29:14;5.07;;;1.40;;
68765;SDS011;55756;45.582;11.484;2022-09-09T14:31:40;6.53;;;1.50;;
68765;SDS011;55756;45.582;11.484;2022-09-09T14:34:06;5.90;;;1.52;;
68765;SDS011;55756;45.582;11.484;2022-09-09T14:36:33;4.40;;;1.40;;
68765;SDS011;55756;45.582;11.484;2022-09-09T14:38:58;4.70;;;1.40;;
68765;SDS011;55756;45.582;11.484;2022-09-09T14:41:24;5.30;;;1.42;;
68765;SDS011;55756;45.582;11.484;2022-09-09T14:43:50;5.20;;;1.33;;
68765;SDS011;55756;45.582;11.484;2022-09-09T14:46:17;5.97;;;1.60;;
68765;SDS011;55756;45.582;11.484;2022-09-09T14:48:44;5.00;;;1.35;;
68765;SDS011;55756;45.582;11.484;2022-09-09T14:51:11;6.32;;;1.30;;
68765;SDS011;55756;45.582;11.484;2022-09-09T14:58:31;4.65;;;1.27;;
68765;SDS011;55756;45.582;11.484;2022-09-09T15:01:07;4.60;;;1.30;;
68765;SDS011;55756;45.582;11.484;2022-09-09T15:03:40;3.55;;;1.20;;
68765;SDS011;55756;45.582;11.484;2022-09-09T15:08:35;3.10;;;1.00;;
68765;SDS011;55756;45.582;11.484;2022-09-09T15:11:02;3.13;;;1.20;;
68765;SDS011;55756;45.582;11.484;2022-09-09T15:13:29;3.95;;;1.30;;
68765;SDS011;55756;45.582;11.484;2022-09-09T15:15:54;4.10;;;1.40;;
68765;SDS011;55756;45.582;11.484;2022-09-09T15:18:21;5.90;;;1.40;;
68765;SDS011;55756;45.582;11.484;2022-09-09T15:20:47;3.92;;;1.20;;
68765;SDS011;55756;45.582;11.484;2022-09-09T15:23:13;3.83;;;1.15;;
68765;SDS011;55756;45.582;11.484;2022-09-09T15:25:55;4.00;;;1.10;;
68765;SDS011;55756;45.582;11.484;2022-09-09T15:28:21;6.43;;;1.30;;
68765;SDS011;55756;45.582;11.484;2022-09-09T15:30:51;3.58;;;1.10;;
68765;SDS011;55756;45.582;11.484;2022-09-09T15:33:19;4.80;;;1.30;;
68765;SDS011;55756;45.582;11.484;2022-09-09T15:35:45;5.13;;;1.30;;
68765;SDS011;55756;45.582;11.484;2022-09-09T15:38:12;2.72;;;1.10;;
68765;SDS011;55756;45.582;11.484;2022-09-09T15:40:39;4.30;;;1.17;;
68765;SDS011;55756;45.582;11.484;2022-09-09T15:43:06;3.72;;;1.30;;
68765;SDS011;55756;45.582;11.484;2022-09-09T15:45:32;5.03;;;1.20;;
68765;SDS011;55756;45.582;11.484;2022-09-09T15:47:59;5.43;;;1.10;;
68765;SDS011;55756;45.582;11.484;2022-09-09T15:50:27;5.25;;;1.10;;
68765;SDS011;55756;45.582;11.484;2022-09-09T15:55:21;3.53;;;1.30;;
68765;SDS011;55756;45.582;11.484;2022-09-09T15:57:46;3.35;;;1.10;;
68765;SDS011;55756;45.582;11.484;2022-09-09T16:00:12;3.95;;;1.20;;
68765;SDS011;55756;45.582;11.484;2022-09-09T16:02:39;4.10;;;1.35;;
68765;SDS011;55756;45.582;11.484;2022-09-09T16:05:05;4.78;;;1.50;;
68765;SDS011;55756;45.582;11.484;2022-09-09T16:07:31;6.38;;;1.40;;
68765;SDS011;55756;45.582;11.484;2022-09-09T16:09:57;6.63;;;1.52;;
68765;SDS011;55756;45.582;11.484;2022-09-09T16:12:22;4.72;;;1.60;;
68765;SDS011;55756;45.582;11.484;2022-09-09T16:14:48;6.50;;;2.00;;
68765;SDS011;55756;45.582;11.484;2022-09-09T16:17:14;6.30;;;1.95;;
68765;SDS011;55756;45.582;11.484;2022-09-09T16:19:40;4.90;;;1.60;;
68765;SDS011;55756;45.582;11.484;2022-09-09T16:22:06;5.28;;;1.75;;
68765;SDS011;55756;45.582;11.484;2022-09-09T16:24:32;5.70;;;1.70;;
68765;SDS011;55756;45.582;11.484;2022-09-09T16:26:58;6.10;;;1.90;;
68765;SDS011;55756;45.582;11.484;2022-09-09T16:29:24;4.88;;;1.80;;
68765;SDS011;55756;45.582;11.484;2022-09-09T16:31:52;4.82;;;1.80;;
68765;SDS011;55756;45.582;11.484;2022-09-09T16:34:19;5.80;;;1.88;;
68765;SDS011;55756;45.582;11.484;2022-09-09T16:36:45;6.32;;;1.80;;
68765;SDS011;55756;45.582;11.484;2022-09-09T16:39:17;5.88;;;1.70;;
68765;SDS011;55756;45.582;11.484;2022-09-09T16:41:44;6.93;;;1.70;;
68765;SDS011;55756;45.582;11.484;2022-09-09T16:46:40;5.70;;;2.00;;
68765;SDS011;55756;45.582;11.484;2022-09-09T16:49:08;6.78;;;2.10;;
68765;SDS011;55756;45.582;11.484;2022-09-09T16:51:36;6.10;;;2.00;;
68765;SDS011;55756;45.582;11.484;2022-09-09T16:56:32;7.43;;;1.92;;
68765;SDS011;55756;45.582;11.484;2022-09-09T16:59:03;9.32;;;2.28;;
68765;SDS011;55756;45.582;11.484;2022-09-09T17:01:31;7.95;;;2.50;;
68765;SDS011;55756;45.582;11.484;2022-09-09T17:04:00;17.10;;;7.90;;
68765;SDS011;55756;45.582;11.484;2022-09-09T17:06:28;21.02;;;14.55;;
68765;SDS011;55756;45.582;11.484;2022-09-09T17:08:58;19.02;;;13.70;;
68765;SDS011;55756;45.582;11.484;2022-09-09T17:11:29;14.27;;;10.20;;
68765;SDS011;55756;45.582;11.484;2022-09-09T17:13:55;11.90;;;5.63;;
68765;SDS011;55756;45.582;11.484;2022-09-09T17:16:24;9.40;;;4.25;;
68765;SDS011;55756;45.582;11.484;2022-09-09T17:18:52;8.23;;;3.70;;
68765;SDS011;55756;45.582;11.484;2022-09-09T17:21:21;9.20;;;3.67;;
68765;SDS011;55756;45.582;11.484;2022-09-09T17:23:49;9.63;;;3.50;;
68765;SDS011;55756;45.582;11.484;2022-09-09T17:26:16;7.38;;;3.00;;
68765;SDS011;55756;45.582;11.484;2022-09-09T17:28:44;8.48;;;3.10;;
68765;SDS011;55756;45.582;11.484;2022-09-09T17:31:11;7.10;;;3.05;;
68765;SDS011;55756;45.582;11.484;2022-09-09T17:33:40;12.82;;;6.97;;
68765;SDS011;55756;45.582;11.484;2022-09-09T17:38:36;14.32;;;7.70;;
68765;SDS011;55756;45.582;11.484;2022-09-09T17:41:07;13.32;;;6.90;;
68765;SDS011;55756;45.582;11.484;2022-09-09T17:43:36;15.77;;;8.85;;
68765;SDS011;55756;45.582;11.484;2022-09-09T17:46:11;14.77;;;7.20;;
68765;SDS011;55756;45.582;11.484;2022-09-09T17:48:39;12.30;;;6.50;;
68765;SDS011;55756;45.582;11.484;2022-09-09T17:51:07;11.10;;;5.95;;
68765;SDS011;55756;45.582;11.484;2022-09-09T17:53:37;10.35;;;5.00;;
68765;SDS011;55756;45.582;11.484;2022-09-09T17:56:05;13.25;;;3.88;;
68765;SDS011;55756;45.582;11.484;2022-09-09T17:58:32;7.85;;;2.60;;
68765;SDS011;55756;45.582;11.484;2022-09-09T18:01:34;7.40;;;2.10;;
68765;SDS011;55756;45.582;11.484;2022-09-09T18:03:55;7.20;;;2.17;;
68765;SDS011;55756;45.582;11.484;2022-09-09T18:06:27;9.85;;;2.17;;
68765;SDS011;55756;45.582;11.484;2022-09-09T18:08:57;8.18;;;2.20;;
68765;SDS011;55756;45.582;11.484;2022-09-09T18:11:25;8.82;;;2.20;;
68765;SDS011;55756;45.582;11.484;2022-09-09T18:13:53;5.78;;;2.03;;
68765;SDS011;55756;45.582;11.484;2022-09-09T18:16:22;8.65;;;2.10;;
68765;SDS011;55756;45.582;11.484;2022-09-09T18:18:50;10.80;;;2.50;;
68765;SDS011;55756;45.582;11.484;2022-09-09T18:21:17;11.23;;;3.90;;
68765;SDS011;55756;45.582;11.484;2022-09-09T18:23:43;8.98;;;3.10;;
68765;SDS011;55756;45.582;11.484;2022-09-09T18:26:23;9.02;;;2.90;;